createdAt,value
2022-11-25T00:01:48.062Z,22.15
2022-11-25T00:04:53.409Z,19.27
2022-11-25T00:07:59.171Z,18.73
2022-11-25T00:11:06.542Z,18.70
2022-11-25T00:14:15.081Z,19.65
2022-11-25T00:17:20.457Z,21.15
2022-11-25T00:20:25.830Z,21.35
2022-11-25T00:23:33.410Z,20.33
2022-11-25T00:26:39.128Z,21.90
2022-11-25T00:29:44.593Z,21.67
2022-11-25T00:32:49.830Z,22.17
2022-11-25T00:35:55.157Z,21.05
2022-11-25T00:39:03.340Z,21.52
2022-11-25T00:42:28.929Z,20.63
2022-11-25T00:45:34.276Z,19.27
2022-11-25T00:48:39.887Z,20.23
2022-11-25T00:51:45.370Z,20.10
2022-11-25T00:54:52.289Z,20.88
2022-11-25T00:57:57.725Z,21.25
2022-11-25T01:01:05.180Z,22.63
2022-11-25T01:04:10.893Z,20.02
2022-11-25T01:07:18.291Z,22.80
2022-11-25T01:10:23.825Z,20.10
2022-11-25T01:13:29.571Z,19.55
2022-11-25T01:16:35.387Z,19.20
2022-11-25T01:19:42.244Z,20.27
2022-11-25T01:22:48.021Z,21.90
2022-11-25T01:25:53.172Z,20.88
2022-11-25T01:29:01.169Z,19.90
2022-11-25T01:32:06.503Z,21.08
2022-11-25T01:35:12.543Z,19.42
2022-11-25T01:38:17.936Z,19.52
2022-11-25T01:41:26.740Z,20.92
2022-11-25T01:44:33.633Z,19.35
2022-11-25T01:47:39.793Z,18.10
2022-11-25T01:50:47.548Z,19.40
2022-11-25T01:53:57.918Z,19.77
2022-11-25T01:57:10.136Z,19.27
2022-11-25T02:00:18.139Z,20.70
2022-11-25T02:03:32.246Z,19.65
2022-11-25T02:06:48.052Z,18.33
2022-11-25T02:09:55.981Z,19.27
2022-11-25T02:13:01.650Z,19.08
2022-11-25T02:16:07.090Z,18.40
2022-11-25T02:19:28.014Z,17.55
2022-11-25T02:22:51.413Z,18.27
2022-11-25T02:25:57.296Z,18.77
2022-11-25T02:29:02.805Z,18.77
2022-11-25T02:32:08.982Z,19.60
2022-11-25T02:35:33.489Z,19.23
2022-11-25T02:38:48.218Z,18.98
2022-11-25T02:41:58.859Z,19.42
2022-11-25T02:45:05.564Z,18.55
2022-11-25T02:48:10.981Z,19.38
2022-11-25T02:51:20.130Z,19.83
2022-11-25T02:54:25.442Z,18.70
2022-11-25T02:57:31.190Z,16.80
2022-11-25T03:00:36.789Z,18.50
2022-11-25T03:03:42.789Z,20.15
2022-11-25T03:06:48.053Z,21.20
2022-11-25T03:09:53.346Z,18.95
2022-11-25T03:12:58.825Z,21.02
2022-11-25T03:16:04.895Z,21.85
2022-11-25T03:19:10.901Z,23.98
2022-11-25T03:22:16.516Z,21.00
2022-11-25T03:25:22.475Z,19.08
2022-11-25T03:28:29.128Z,19.23
2022-11-25T03:31:36.562Z,19.08
2022-11-25T03:34:42.483Z,16.60
2022-11-25T03:37:48.319Z,19.25
2022-11-25T03:40:53.970Z,20.20
2022-11-25T03:43:59.975Z,20.50
2022-11-25T03:47:05.594Z,18.92
2022-11-25T03:50:13.730Z,21.20
2022-11-25T03:53:19.471Z,19.77
2022-11-25T03:56:25.576Z,20.00
2022-11-25T03:59:30.998Z,19.98
2022-11-25T04:02:36.525Z,19.60
2022-11-25T04:05:42.385Z,18.40
2022-11-25T04:08:48.259Z,20.58
2022-11-25T04:12:12.073Z,18.40
2022-11-25T04:15:28.630Z,18.83
2022-11-25T04:18:36.479Z,21.25
2022-11-25T04:21:41.834Z,19.20
2022-11-25T04:24:48.680Z,19.75
2022-11-25T04:27:59.888Z,19.40
2022-11-25T04:31:11.978Z,18.55
2022-11-25T04:34:21.175Z,20.13
2022-11-25T04:37:29.421Z,20.63
2022-11-25T04:40:35.631Z,21.20
2022-11-25T04:43:56.372Z,20.70
2022-11-25T04:47:01.797Z,19.35
2022-11-25T04:50:13.128Z,21.55
2022-11-25T04:53:28.378Z,20.90
2022-11-25T04:56:33.869Z,20.85
2022-11-25T04:59:42.671Z,20.88
2022-11-25T05:02:50.945Z,21.43
2022-11-25T05:05:58.792Z,23.17
2022-11-25T05:09:05.046Z,22.75
2022-11-25T05:12:25.984Z,24.13
2022-11-25T05:15:31.765Z,24.73
2022-11-25T05:18:37.367Z,24.48
2022-11-25T05:21:42.842Z,23.00
2022-11-25T05:24:49.323Z,24.10
2022-11-25T05:27:56.152Z,25.17
2022-11-25T05:31:01.578Z,25.33
2022-11-25T05:34:08.327Z,25.50
2022-11-25T05:37:17.729Z,24.50
2022-11-25T05:40:35.167Z,22.95
2022-11-25T05:43:47.690Z,25.13
2022-11-25T05:46:54.367Z,23.45
2022-11-25T05:50:00.027Z,24.98
2022-11-25T05:53:06.230Z,24.17
2022-11-25T05:56:13.813Z,24.95
2022-11-25T05:59:42.018Z,26.08
2022-11-25T06:02:53.701Z,23.70
2022-11-25T06:06:03.072Z,22.20
2022-11-25T06:09:10.069Z,23.35
2022-11-25T06:12:16.789Z,26.17
2022-11-25T06:15:27.171Z,24.42
2022-11-25T06:18:37.859Z,24.63
2022-11-25T06:21:45.601Z,24.20
2022-11-25T06:24:58.898Z,23.05
2022-11-25T06:28:13.106Z,24.23
2022-11-25T06:31:25.593Z,23.50
2022-11-25T06:34:50.968Z,24.40
2022-11-25T06:38:17.050Z,23.23
2022-11-25T06:41:23.339Z,22.15
2022-11-25T06:44:29.053Z,21.35
2022-11-25T06:47:34.435Z,21.52
2022-11-25T06:50:40.341Z,21.83
2022-11-25T06:53:46.950Z,21.77
2022-11-25T06:56:54.083Z,21.73
2022-11-25T07:00:00.098Z,22.55
2022-11-25T07:03:05.761Z,21.02
2022-11-25T07:06:16.269Z,23.45
2022-11-25T07:09:22.948Z,23.58
2022-11-25T07:12:28.283Z,22.33
2022-11-25T07:15:35.160Z,22.10
2022-11-25T07:18:42.148Z,26.08
2022-11-25T07:21:47.964Z,20.42
2022-11-25T07:24:53.337Z,23.50
2022-11-25T07:27:58.860Z,21.83
2022-11-25T07:31:27.520Z,21.25
2022-11-25T07:34:34.802Z,21.80
2022-11-25T07:37:40.475Z,19.63
2022-11-25T07:40:46.381Z,22.00
2022-11-25T07:43:54.475Z,20.88
2022-11-25T07:47:02.865Z,25.90
2022-11-25T07:50:09.292Z,26.00
2022-11-25T07:53:14.634Z,24.98
2022-11-25T07:56:21.762Z,23.45
2022-11-25T07:59:27.971Z,23.83
2022-11-25T08:02:34.421Z,24.15
2022-11-25T08:05:40.168Z,24.38
2022-11-25T08:08:46.633Z,25.15
2022-11-25T08:11:53.123Z,25.20
2022-11-25T08:14:59.028Z,27.25
2022-11-25T08:18:04.572Z,24.15
2022-11-25T08:21:13.325Z,21.58
2022-11-25T08:24:21.330Z,19.92
2022-11-25T08:27:26.953Z,19.88
2022-11-25T08:30:32.626Z,18.58
2022-11-25T08:33:38.513Z,25.58
2022-11-25T08:36:48.202Z,23.20
2022-11-25T08:39:55.473Z,21.10
2022-11-25T08:43:02.671Z,20.65
2022-11-25T08:46:20.925Z,18.50
2022-11-25T08:49:34.989Z,20.58
2022-11-25T08:52:44.805Z,16.70
2022-11-25T08:55:51.022Z,16.42
2022-11-25T08:58:57.930Z,15.45
2022-11-25T09:02:03.612Z,17.30
2022-11-25T09:05:13.721Z,15.07
2022-11-25T09:08:21.356Z,16.30
2022-11-25T09:11:27.529Z,17.60
2022-11-25T09:14:33.090Z,15.88
2022-11-25T09:17:38.666Z,18.20
2022-11-25T09:20:45.181Z,16.30
2022-11-25T09:23:52.802Z,17.00
2022-11-25T09:26:58.160Z,14.43
2022-11-25T09:30:04.236Z,15.52
2022-11-25T09:33:09.929Z,15.82
2022-11-25T09:36:18.640Z,15.35
2022-11-25T09:39:28.551Z,18.05
2022-11-25T09:43:21.019Z,17.70
2022-11-25T09:46:51.729Z,16.02
2022-11-25T09:50:06.086Z,16.00
2022-11-25T09:53:33.254Z,14.80
2022-11-25T09:56:45.456Z,18.30
2022-11-25T10:00:11.590Z,16.45
2022-11-25T10:03:36.106Z,15.73
2022-11-25T10:10:01.762Z,16.38
2022-11-25T10:13:22.261Z,17.52
2022-11-25T10:16:36.508Z,17.38
2022-11-25T10:19:57.428Z,16.58
2022-11-25T10:23:16.943Z,13.77
2022-11-25T10:26:27.716Z,12.93
2022-11-25T10:29:38.525Z,12.20
2022-11-25T10:32:50.704Z,14.23
2022-11-25T10:36:06.496Z,13.23
2022-11-25T10:39:20.121Z,13.05
2022-11-25T10:42:28.923Z,11.25
2022-11-25T10:45:45.608Z,11.23
2022-11-25T10:49:15.024Z,10.35
2022-11-25T10:52:24.300Z,8.77
2022-11-25T10:55:33.994Z,8.88
2022-11-25T10:58:41.121Z,8.48
2022-11-25T11:01:47.111Z,8.50
2022-11-25T11:05:00.502Z,8.63
2022-11-25T11:08:12.421Z,9.45
2022-11-25T11:11:23.722Z,8.65
2022-11-25T11:14:30.441Z,8.33
2022-11-25T11:17:37.417Z,9.30
2022-11-25T11:20:48.876Z,12.30
2022-11-25T11:23:57.551Z,10.70
2022-11-25T11:27:08.198Z,9.68
2022-11-25T11:30:27.287Z,9.45
2022-11-25T11:33:59.110Z,10.95
2022-11-25T11:37:38.372Z,8.50
2022-11-25T11:40:52.222Z,10.73
2022-11-25T11:44:18.856Z,10.20
2022-11-25T11:47:45.327Z,11.52
2022-11-25T11:51:18.334Z,11.65
2022-11-25T11:54:44.068Z,11.27
2022-11-25T11:58:01.712Z,12.57
2022-11-25T12:01:25.089Z,12.20
2022-11-25T12:04:54.037Z,11.32
2022-11-25T12:08:34.689Z,11.75
2022-11-25T12:11:46.182Z,11.70
2022-11-25T12:14:57.922Z,11.23
2022-11-25T12:18:29.499Z,11.00
2022-11-25T12:21:53.820Z,10.60
2022-11-25T12:25:09.311Z,11.65
2022-11-25T12:28:35.502Z,13.02
2022-11-25T12:31:56.743Z,16.35
2022-11-25T12:35:11.364Z,13.60
2022-11-25T12:38:27.939Z,14.88
2022-11-25T12:41:43.630Z,14.63
2022-11-25T12:45:07.574Z,14.23
2022-11-25T12:48:17.323Z,13.52
2022-11-25T12:51:46.082Z,15.88
2022-11-25T12:55:07.591Z,14.80
2022-11-25T12:58:54.155Z,12.55
2022-11-25T13:02:05.569Z,11.60
2022-11-25T13:09:28.327Z,13.65
2022-11-25T13:13:07.686Z,11.57
2022-11-25T13:16:15.743Z,12.60
2022-11-25T13:19:24.157Z,11.68
2022-11-25T13:22:30.256Z,12.57
2022-11-25T13:25:38.007Z,12.65
2022-11-25T13:28:43.707Z,11.88
2022-11-25T13:32:25.673Z,12.98
2022-11-25T13:35:34.964Z,11.77
2022-11-25T13:38:49.756Z,12.60
2022-11-25T13:42:25.248Z,12.40
2022-11-25T13:45:43.499Z,12.43
2022-11-25T13:48:49.847Z,11.63
2022-11-25T13:52:17.721Z,12.63
2022-11-25T13:55:32.025Z,13.68
2022-11-25T13:58:37.911Z,15.55
2022-11-25T14:01:46.339Z,16.98
2022-11-25T14:05:11.643Z,17.35
2022-11-25T14:08:27.120Z,18.02
2022-11-25T14:11:47.308Z,18.83
2022-11-25T14:15:25.407Z,19.33
2022-11-25T14:19:28.486Z,20.77
2022-11-25T14:22:58.180Z,20.13
2022-11-25T14:26:41.771Z,21.38
2022-11-25T14:29:44.276Z,21.00
2022-11-25T14:33:11.802Z,20.98
2022-11-25T14:36:40.852Z,22.30
2022-11-25T14:40:01.791Z,22.27
2022-11-25T14:43:15.547Z,21.63
2022-11-25T14:46:23.628Z,22.98
2022-11-25T14:49:55.730Z,22.50
2022-11-25T14:53:12.297Z,28.75
2022-11-25T14:56:26.386Z,42.67
2022-11-25T14:59:32.159Z,42.53
2022-11-25T15:02:41.476Z,36.80
2022-11-25T15:05:57.410Z,30.67
2022-11-25T15:09:21.345Z,34.95
2022-11-25T15:12:32.791Z,31.08
2022-11-25T15:15:38.770Z,26.70
2022-11-25T15:18:54.783Z,23.63
2022-11-25T15:25:28.988Z,23.55
2022-11-25T15:28:36.955Z,21.83
2022-11-25T15:31:42.729Z,21.20
2022-11-25T15:34:49.732Z,21.58
2022-11-25T15:37:55.306Z,22.08
2022-11-25T15:41:01.732Z,21.67
2022-11-25T15:44:07.568Z,20.00
2022-11-25T15:47:29.118Z,21.52
2022-11-25T15:50:35.591Z,21.70
2022-11-25T15:53:47.215Z,20.38
2022-11-25T15:57:16.657Z,24.50
2022-11-25T16:00:23.757Z,22.75
2022-11-25T16:03:31.885Z,23.33
2022-11-25T16:06:37.349Z,23.00
2022-11-25T16:09:51.654Z,23.17
2022-11-25T16:13:21.143Z,26.15
2022-11-25T16:16:30.292Z,24.30
2022-11-25T16:19:46.822Z,24.40
2022-11-25T16:22:52.553Z,24.77
2022-11-25T16:26:04.695Z,25.55
2022-11-25T16:29:31.657Z,24.25
2022-11-25T16:32:37.308Z,24.95
2022-11-25T16:35:43.756Z,25.45
2022-11-25T16:38:54.094Z,27.10
2022-11-25T16:42:04.481Z,27.38
2022-11-25T16:45:20.286Z,25.77
2022-11-25T16:48:25.836Z,25.92
2022-11-25T16:51:31.772Z,26.98
2022-11-25T16:54:39.622Z,25.05
2022-11-25T16:57:45.816Z,24.23
2022-11-25T17:00:57.396Z,23.33
2022-11-25T17:07:32.099Z,23.77
2022-11-25T17:10:42.656Z,24.55
2022-11-25T17:13:52.881Z,20.95
2022-11-25T17:17:05.336Z,22.90
2022-11-25T17:20:15.980Z,22.38
2022-11-25T17:23:22.896Z,23.17
2022-11-25T17:26:34.743Z,22.83
2022-11-25T17:29:45.066Z,22.77
2022-11-25T17:32:58.960Z,22.75
2022-11-25T17:36:04.972Z,23.65
2022-11-25T17:39:12.462Z,23.65
2022-11-25T17:42:23.345Z,25.05
2022-11-25T17:45:29.927Z,22.67
2022-11-25T17:48:36.397Z,25.10
2022-11-25T17:51:43.721Z,22.92
2022-11-25T17:54:49.825Z,24.48
2022-11-25T17:57:56.292Z,23.77
2022-11-25T18:01:02.562Z,26.10
2022-11-25T18:04:21.696Z,26.70
2022-11-25T18:07:27.602Z,28.25
2022-11-25T18:10:33.626Z,29.35
2022-11-25T18:13:42.167Z,30.30
2022-11-25T18:16:48.380Z,28.05
2022-11-25T18:19:55.489Z,25.35
2022-11-25T18:23:02.892Z,27.63
2022-11-25T18:26:12.603Z,25.58
2022-11-25T18:29:25.002Z,25.25
2022-11-25T18:32:30.973Z,27.00
2022-11-25T18:35:37.247Z,26.92
2022-11-25T18:38:53.801Z,26.48
2022-11-25T18:42:01.814Z,24.65
2022-11-25T18:45:15.893Z,22.95
2022-11-25T18:48:26.412Z,23.85
2022-11-25T18:51:32.911Z,24.95
2022-11-25T18:54:38.702Z,25.77
2022-11-25T18:57:48.905Z,25.25
2022-11-25T19:01:04.303Z,24.70
2022-11-25T19:04:17.023Z,24.05
2022-11-25T19:07:22.634Z,24.17
2022-11-25T19:10:32.607Z,22.63
2022-11-25T19:13:38.587Z,24.73
2022-11-25T19:16:45.156Z,23.20
2022-11-25T19:19:51.340Z,21.90
2022-11-25T19:23:01.199Z,20.65
2022-11-25T19:26:32.159Z,20.45
2022-11-25T19:29:42.293Z,20.90
2022-11-25T19:32:52.362Z,19.75
2022-11-25T19:35:59.795Z,22.45
2022-11-25T19:39:15.828Z,21.00
2022-11-25T19:42:23.719Z,21.55
2022-11-25T19:45:31.536Z,20.52
2022-11-25T19:48:39.939Z,21.50
2022-11-25T19:51:47.684Z,25.27
2022-11-25T19:54:54.133Z,38.13
2022-11-25T19:58:00.898Z,40.80
2022-11-25T20:01:07.173Z,36.00
2022-11-25T20:04:21.884Z,28.27
2022-11-25T20:07:28.059Z,26.17
2022-11-25T20:10:33.587Z,22.85
2022-11-25T20:13:40.620Z,20.23
2022-11-25T20:16:46.822Z,18.60
2022-11-25T20:19:57.517Z,20.52
2022-11-25T20:23:16.608Z,20.88
2022-11-25T20:26:34.798Z,18.75
2022-11-25T20:29:40.992Z,18.67
2022-11-25T20:32:47.592Z,18.98
2022-11-25T20:36:14.927Z,18.95
2022-11-25T20:39:21.925Z,19.27
2022-11-25T20:42:28.190Z,19.58
2022-11-25T20:45:34.398Z,17.23
2022-11-25T20:48:40.265Z,19.40
2022-11-25T20:51:46.747Z,17.10
2022-11-25T20:54:53.083Z,19.25
2022-11-25T20:58:00.041Z,20.02
2022-11-25T21:01:07.135Z,18.88
2022-11-25T21:04:13.605Z,20.40
2022-11-25T21:07:19.956Z,19.77
2022-11-25T21:10:29.798Z,19.00
2022-11-25T21:13:36.690Z,20.63
2022-11-25T21:16:43.079Z,18.65
2022-11-25T21:19:49.180Z,19.52
2022-11-25T21:22:58.581Z,17.17
2022-11-25T21:26:17.428Z,18.35
2022-11-25T21:29:23.890Z,17.33
2022-11-25T21:32:29.806Z,17.02
2022-11-25T21:35:38.127Z,17.02
2022-11-25T21:38:45.210Z,16.52
2022-11-25T21:41:51.536Z,17.60
2022-11-25T21:44:57.794Z,16.85
2022-11-25T21:48:03.850Z,18.55
2022-11-25T21:51:22.292Z,16.55
2022-11-25T21:54:28.033Z,18.02
2022-11-25T21:57:33.741Z,16.00
2022-11-25T22:00:39.913Z,15.90
2022-11-25T22:03:46.531Z,15.80
2022-11-25T22:06:52.787Z,15.63
2022-11-25T22:09:58.850Z,14.60
2022-11-25T22:13:06.887Z,15.73
2022-11-25T22:16:17.889Z,15.02
2022-11-25T22:19:27.716Z,17.63
2022-11-25T22:22:34.730Z,16.80
2022-11-25T22:25:40.446Z,14.73
2022-11-25T22:28:50.506Z,14.60
2022-11-25T22:31:56.360Z,15.77
2022-11-25T22:35:02.678Z,15.02
2022-11-25T22:38:18.938Z,14.77
2022-11-25T22:41:24.591Z,14.18
2022-11-25T22:44:43.107Z,14.45
2022-11-25T22:47:49.537Z,13.60
2022-11-25T22:50:55.072Z,13.00
2022-11-25T22:54:00.856Z,14.38
2022-11-25T22:57:06.697Z,12.43
2022-11-25T23:00:21.700Z,12.93
2022-11-25T23:03:30.106Z,13.13
2022-11-25T23:06:36.056Z,12.68
2022-11-25T23:09:43.464Z,11.98
2022-11-25T23:12:49.663Z,11.57
2022-11-25T23:16:00.509Z,12.43
2022-11-25T23:19:09.392Z,10.50
2022-11-25T23:22:15.125Z,11.25
2022-11-25T23:25:23.086Z,11.38
2022-11-25T23:28:28.531Z,11.10
2022-11-25T23:31:38.708Z,11.50
2022-11-25T23:34:45.509Z,12.13
2022-11-25T23:37:57.258Z,12.35
2022-11-25T23:41:03.077Z,11.35
2022-11-25T23:44:24.201Z,11.50
2022-11-25T23:47:29.652Z,11.75
2022-11-25T23:50:35.328Z,11.70
2022-11-25T23:53:41.940Z,11.57
2022-11-25T23:56:48.695Z,12.60
2022-11-25T23:59:55.131Z,11.57
